createdAt,value
2023-05-15T00:01:00.482Z,11.42
2023-05-15T00:04:06.238Z,11.37
2023-05-15T00:07:12.414Z,11.33
2023-05-15T00:10:17.868Z,11.28
2023-05-15T00:13:23.373Z,11.25
2023-05-15T00:16:28.456Z,11.22
2023-05-15T00:19:34.563Z,11.15
2023-05-15T00:22:40.733Z,11.10
2023-05-15T00:25:46.466Z,11.05
2023-05-15T00:28:53.831Z,11.01
2023-05-15T00:31:59.534Z,10.96
2023-05-15T00:35:05.703Z,10.94
2023-05-15T00:38:10.908Z,10.93
2023-05-15T00:41:16.802Z,10.91
2023-05-15T00:44:22.268Z,10.89
2023-05-15T00:47:28.320Z,10.86
2023-05-15T00:50:34.773Z,10.83
2023-05-15T00:53:42.025Z,10.79
2023-05-15T00:56:48.232Z,10.78
2023-05-15T00:59:56.968Z,10.77
2023-05-15T01:03:03.863Z,10.76
2023-05-15T01:06:10.245Z,10.74
2023-05-15T01:09:16.340Z,10.70
2023-05-15T01:12:23.272Z,10.71
2023-05-15T01:15:28.173Z,10.69
2023-05-15T01:18:37.651Z,10.67
2023-05-15T01:21:55.817Z,10.65
2023-05-15T01:25:26.219Z,10.58
2023-05-15T01:28:35.577Z,10.56
2023-05-15T01:31:41.059Z,10.54
2023-05-15T01:34:55.021Z,10.53
2023-05-15T01:38:05.544Z,10.52
2023-05-15T01:41:17.762Z,10.52
2023-05-15T01:44:35.032Z,10.50
2023-05-15T01:47:56.179Z,10.46
2023-05-15T01:51:02.966Z,10.41
2023-05-15T01:54:09.214Z,10.37
2023-05-15T01:57:15.653Z,10.35
2023-05-15T02:00:23.054Z,10.31
2023-05-15T02:03:29.038Z,10.29
2023-05-15T02:06:35.774Z,10.24
2023-05-15T02:09:41.612Z,10.18
2023-05-15T02:12:47.312Z,10.12
2023-05-15T02:15:53.419Z,10.05
2023-05-15T02:18:59.565Z,10.02
2023-05-15T02:22:05.222Z,9.97
2023-05-15T02:25:11.480Z,9.95
2023-05-15T02:28:16.292Z,9.95
2023-05-15T02:31:25.213Z,9.96
2023-05-15T02:34:55.381Z,9.97
2023-05-15T02:38:04.177Z,10.00
2023-05-15T02:41:09.563Z,10.02
2023-05-15T02:44:14.793Z,10.04
2023-05-15T02:47:21.897Z,10.08
2023-05-15T02:50:28.622Z,10.08
2023-05-15T02:53:34.884Z,10.08
2023-05-15T02:56:40.846Z,10.11
2023-05-15T02:59:48.439Z,10.14
2023-05-15T03:02:55.070Z,10.18
2023-05-15T03:05:53.814Z,10.26
2023-05-15T03:08:46.909Z,10.34
2023-05-15T03:11:53.484Z,10.43
2023-05-15T03:14:59.198Z,10.54
2023-05-15T03:18:05.400Z,10.67
2023-05-15T03:21:10.606Z,10.79
2023-05-15T03:24:16.701Z,10.90
2023-05-15T03:27:23.396Z,11.00
2023-05-15T03:30:28.858Z,11.10
2023-05-15T03:33:36.362Z,11.20
2023-05-15T03:36:42.503Z,11.32
2023-05-15T03:39:49.823Z,11.43
2023-05-15T03:42:59.005Z,11.54
2023-05-15T03:46:06.056Z,11.64
2023-05-15T03:49:14.813Z,11.76
2023-05-15T03:52:23.613Z,11.87
2023-05-15T03:55:30.635Z,12.00
2023-05-15T03:58:39.567Z,12.11
2023-05-15T04:02:02.723Z,12.24
2023-05-15T04:04:53.345Z,12.40
2023-05-15T04:08:01.421Z,12.52
2023-05-15T04:11:06.886Z,12.67
2023-05-15T04:14:12.438Z,12.81
2023-05-15T04:17:18.231Z,12.93
2023-05-15T04:20:24.920Z,13.06
2023-05-15T04:23:30.812Z,13.20
2023-05-15T04:26:36.373Z,13.33
2023-05-15T04:29:41.883Z,13.47
2023-05-15T04:32:49.958Z,13.62
2023-05-15T04:35:55.979Z,13.77
2023-05-15T04:39:01.938Z,13.90
2023-05-15T04:42:09.471Z,14.02
2023-05-15T04:45:16.455Z,14.16
2023-05-15T04:48:25.414Z,14.30
2023-05-15T04:51:30.748Z,14.45
2023-05-15T04:54:36.779Z,14.57
2023-05-15T04:57:42.534Z,14.71
2023-05-15T05:00:48.254Z,14.85
2023-05-15T05:03:53.791Z,14.97
2023-05-15T05:06:59.130Z,15.11
2023-05-15T05:10:05.499Z,15.26
2023-05-15T05:13:12.365Z,15.44
2023-05-15T05:16:18.158Z,15.58
2023-05-15T05:19:23.317Z,15.68
2023-05-15T05:22:28.492Z,15.82
2023-05-15T05:25:34.535Z,15.95
2023-05-15T05:28:40.612Z,16.08
2023-05-15T05:31:47.255Z,16.21
2023-05-15T05:34:53.729Z,16.34
2023-05-15T05:38:00.175Z,16.50
2023-05-15T05:41:07.013Z,16.66
2023-05-15T05:44:17.363Z,16.80
2023-05-15T05:47:23.947Z,16.93
2023-05-15T05:50:29.037Z,17.07
2023-05-15T05:53:36.958Z,17.26
2023-05-15T05:56:43.647Z,17.45
2023-05-15T05:59:49.582Z,17.68
2023-05-15T06:02:58.002Z,17.86
2023-05-15T06:06:04.553Z,18.03
2023-05-15T06:09:11.634Z,18.17
2023-05-15T06:12:21.063Z,18.31
2023-05-15T06:15:29.132Z,18.49
2023-05-15T06:18:35.646Z,18.63
2023-05-15T06:21:39.899Z,18.77
2023-05-15T06:24:45.712Z,18.88
2023-05-15T06:27:52.046Z,19.00
2023-05-15T06:30:59.293Z,19.12
2023-05-15T06:34:05.564Z,19.24
2023-05-15T06:37:11.248Z,19.37
2023-05-15T06:40:17.688Z,19.51
2023-05-15T06:43:23.078Z,19.65
2023-05-15T06:46:28.536Z,19.82
2023-05-15T06:49:34.136Z,19.94
2023-05-15T06:52:39.405Z,20.06
2023-05-15T06:55:44.600Z,20.17
2023-05-15T06:58:50.765Z,20.27
2023-05-15T07:01:57.560Z,20.42
2023-05-15T07:05:05.914Z,20.57
2023-05-15T07:08:11.899Z,20.70
2023-05-15T07:11:17.542Z,20.83
2023-05-15T07:14:23.154Z,20.94
2023-05-15T07:17:29.626Z,21.04
2023-05-15T07:20:35.667Z,21.19
2023-05-15T07:23:42.891Z,21.30
2023-05-15T07:26:58.158Z,21.40
2023-05-15T07:29:56.139Z,21.50
2023-05-15T07:33:02.997Z,21.65
2023-05-15T07:36:10.223Z,21.79
2023-05-15T07:39:16.936Z,21.89
2023-05-15T07:42:22.493Z,22.01
2023-05-15T07:45:31.361Z,22.10
2023-05-15T07:48:37.918Z,22.15
2023-05-15T07:51:44.626Z,22.23
2023-05-15T07:54:50.279Z,22.36
2023-05-15T07:57:55.454Z,22.48
2023-05-15T08:01:02.140Z,22.57
2023-05-15T08:04:07.127Z,22.70
2023-05-15T08:07:13.961Z,22.80
2023-05-15T08:10:23.742Z,22.96
2023-05-15T08:13:29.560Z,23.06
2023-05-15T08:16:35.927Z,23.15
2023-05-15T08:19:42.979Z,23.24
2023-05-15T08:22:48.031Z,23.32
2023-05-15T08:25:53.602Z,23.39
2023-05-15T08:29:00.030Z,23.49
2023-05-15T08:32:06.571Z,23.57
2023-05-15T08:35:13.944Z,23.67
2023-05-15T08:38:20.053Z,23.76
2023-05-15T08:41:40.067Z,23.86
2023-05-15T08:44:40.298Z,23.95
2023-05-15T08:47:45.505Z,24.04
2023-05-15T08:50:52.831Z,24.13
2023-05-15T08:54:01.265Z,24.19
2023-05-15T08:57:09.053Z,24.28
2023-05-15T09:00:15.531Z,24.41
2023-05-15T09:03:22.997Z,24.61
2023-05-15T09:06:29.209Z,24.79
2023-05-15T09:09:36.304Z,24.95
2023-05-15T09:12:41.589Z,25.08
2023-05-15T09:15:48.316Z,25.22
2023-05-15T09:18:54.991Z,25.35
2023-05-15T09:22:02.324Z,25.43
2023-05-15T09:25:09.623Z,25.38
2023-05-15T09:28:15.151Z,25.31
2023-05-15T09:31:22.767Z,25.33
2023-05-15T09:34:29.105Z,25.40
2023-05-15T09:37:46.009Z,25.51
2023-05-15T09:40:50.895Z,25.78
2023-05-15T09:43:57.166Z,26.05
2023-05-15T09:47:05.470Z,26.25
2023-05-15T09:50:13.260Z,26.48
2023-05-15T09:53:21.472Z,26.76
2023-05-15T09:56:26.986Z,26.95
2023-05-15T09:59:34.661Z,26.94
2023-05-15T10:02:42.145Z,26.84
2023-05-15T10:05:47.859Z,26.73
2023-05-15T10:08:55.993Z,26.63
2023-05-15T10:12:06.634Z,26.51
2023-05-15T10:15:13.415Z,26.33
2023-05-15T10:18:21.047Z,26.54
2023-05-15T10:21:27.952Z,26.76
2023-05-15T10:24:33.088Z,26.83
2023-05-15T10:27:41.118Z,26.78
2023-05-15T10:30:47.603Z,26.77
2023-05-15T10:33:54.809Z,26.98
2023-05-15T10:37:01.275Z,27.37
2023-05-15T10:40:08.416Z,27.64
2023-05-15T10:43:14.883Z,27.89
2023-05-15T10:46:21.421Z,27.79
2023-05-15T10:49:28.043Z,27.56
2023-05-15T10:52:33.767Z,27.57
2023-05-15T10:55:40.103Z,27.81
2023-05-15T10:58:46.341Z,27.99
2023-05-15T11:01:54.952Z,27.95
2023-05-15T11:04:59.805Z,27.75
2023-05-15T11:08:35.598Z,27.57
2023-05-15T11:12:12.971Z,27.43
2023-05-15T11:15:31.245Z,27.23
2023-05-15T11:18:38.555Z,26.97
2023-05-15T11:21:47.567Z,26.82
2023-05-15T11:25:14.173Z,26.69
2023-05-15T11:28:20.902Z,26.57
2023-05-15T11:31:26.152Z,26.34
2023-05-15T11:34:34.463Z,26.17
2023-05-15T11:37:41.214Z,26.01
2023-05-15T11:41:05.804Z,25.81
2023-05-15T11:44:11.716Z,25.63
2023-05-15T11:47:15.968Z,25.54
2023-05-15T11:50:23.243Z,25.53
2023-05-15T11:53:27.923Z,25.55
2023-05-15T11:56:40.987Z,25.62
2023-05-15T11:59:45.666Z,25.69
2023-05-15T12:02:57.954Z,25.91
2023-05-15T12:06:04.724Z,26.21
2023-05-15T12:09:12.748Z,26.65
2023-05-15T12:12:18.870Z,27.08
2023-05-15T12:15:30.263Z,27.50
2023-05-15T12:18:36.920Z,27.75
2023-05-15T12:21:46.715Z,27.88
2023-05-15T12:24:56.382Z,28.05
2023-05-15T12:28:03.188Z,28.21
2023-05-15T12:31:09.474Z,28.19
2023-05-15T12:34:14.984Z,28.34
2023-05-15T12:37:21.406Z,28.56
2023-05-15T12:40:27.488Z,28.71
2023-05-15T12:43:35.128Z,28.90
2023-05-15T12:46:45.557Z,29.10
2023-05-15T12:49:55.175Z,29.25
2023-05-15T12:53:08.868Z,29.47
2023-05-15T12:56:14.413Z,29.76
2023-05-15T12:59:20.701Z,29.76
2023-05-15T13:02:28.057Z,29.52
2023-05-15T13:05:33.392Z,29.16
2023-05-15T13:08:39.381Z,28.92
2023-05-15T13:11:49.606Z,28.92
2023-05-15T13:14:57.921Z,28.92
2023-05-15T13:18:07.528Z,28.85
2023-05-15T13:21:13.523Z,28.64
2023-05-15T13:24:21.646Z,28.15
2023-05-15T13:27:27.244Z,28.15
2023-05-15T13:30:36.137Z,27.95
2023-05-15T13:33:43.381Z,28.07
2023-05-15T13:36:49.282Z,28.36
2023-05-15T13:39:55.058Z,28.36
2023-05-15T13:43:01.654Z,28.55
2023-05-15T13:46:09.169Z,28.74
2023-05-15T13:49:18.863Z,28.86
2023-05-15T13:52:28.999Z,29.24
2023-05-15T13:55:35.177Z,29.57
2023-05-15T13:58:42.243Z,29.60
2023-05-15T14:01:49.670Z,29.57
2023-05-15T14:04:56.013Z,29.40
2023-05-15T14:08:03.730Z,29.29
2023-05-15T14:11:09.194Z,29.20
2023-05-15T14:14:15.501Z,28.79
2023-05-15T14:17:24.365Z,28.88
2023-05-15T14:20:29.919Z,28.88
2023-05-15T14:23:34.991Z,29.12
2023-05-15T14:26:41.351Z,29.32
2023-05-15T14:29:47.511Z,29.51
2023-05-15T14:32:54.348Z,29.73
2023-05-15T14:36:01.110Z,29.80
2023-05-15T14:39:06.996Z,30.00
2023-05-15T14:42:12.944Z,29.86
2023-05-15T14:45:18.012Z,29.64
2023-05-15T14:48:25.559Z,28.82
2023-05-15T14:51:31.891Z,28.82
2023-05-15T14:54:37.639Z,28.61
2023-05-15T14:57:42.894Z,28.62
2023-05-15T15:00:49.876Z,29.07
2023-05-15T15:03:55.639Z,29.10
2023-05-15T15:07:05.353Z,28.91
2023-05-15T15:10:10.265Z,28.57
2023-05-15T15:13:17.417Z,28.22
2023-05-15T15:16:23.060Z,27.94
2023-05-15T15:19:29.643Z,27.69
2023-05-15T15:22:34.853Z,27.54
2023-05-15T15:25:41.636Z,27.70
2023-05-15T15:28:47.893Z,28.17
2023-05-15T15:31:53.001Z,28.82
2023-05-15T15:34:59.212Z,29.18
2023-05-15T15:38:04.973Z,29.12
2023-05-15T15:41:11.919Z,29.33
2023-05-15T15:44:17.484Z,29.08
2023-05-15T15:47:24.183Z,28.67
2023-05-15T15:50:31.543Z,28.30
2023-05-15T15:53:41.773Z,28.04
2023-05-15T15:56:46.700Z,28.21
2023-05-15T15:59:54.694Z,29.06
2023-05-15T16:03:01.857Z,29.88
2023-05-15T16:06:06.898Z,30.46
2023-05-15T16:09:12.783Z,30.55
2023-05-15T16:12:18.263Z,30.66
2023-05-15T16:15:23.228Z,30.78
2023-05-15T16:18:12.029Z,30.51
2023-05-15T16:21:17.016Z,29.97
2023-05-15T16:24:23.217Z,29.36
2023-05-15T16:27:29.591Z,28.77
2023-05-15T16:30:48.112Z,27.67
2023-05-15T16:33:46.622Z,27.67
2023-05-15T16:36:51.810Z,27.19
2023-05-15T16:39:57.675Z,26.76
2023-05-15T16:43:03.811Z,26.34
2023-05-15T16:46:09.550Z,25.95
2023-05-15T16:49:17.724Z,25.57
2023-05-15T16:52:22.425Z,25.21
2023-05-15T16:55:30.110Z,24.87
2023-05-15T16:58:35.587Z,24.58
2023-05-15T17:01:41.698Z,24.25
2023-05-15T17:04:48.941Z,23.97
2023-05-15T17:07:55.162Z,23.66
2023-05-15T17:11:01.254Z,23.34
2023-05-15T17:14:08.768Z,23.06
2023-05-15T17:17:13.947Z,22.79
2023-05-15T17:20:20.248Z,22.56
2023-05-15T17:23:26.561Z,22.33
2023-05-15T17:26:31.672Z,22.11
2023-05-15T17:29:39.379Z,21.88
2023-05-15T17:32:44.651Z,21.67
2023-05-15T17:35:50.070Z,21.44
2023-05-15T17:38:57.120Z,21.21
2023-05-15T17:42:04.126Z,21.00
2023-05-15T17:45:10.548Z,20.80
2023-05-15T17:48:17.629Z,20.60
2023-05-15T17:51:23.612Z,20.43
2023-05-15T17:54:29.841Z,20.26
2023-05-15T17:57:35.422Z,20.11
2023-05-15T18:00:41.890Z,19.97
2023-05-15T18:03:47.821Z,19.84
2023-05-15T18:06:55.549Z,19.71
2023-05-15T18:10:01.357Z,19.57
2023-05-15T18:13:07.509Z,19.42
2023-05-15T18:16:13.511Z,19.29
2023-05-15T18:19:19.843Z,19.19
2023-05-15T18:22:27.548Z,19.06
2023-05-15T18:25:32.839Z,18.95
2023-05-15T18:28:38.608Z,18.84
2023-05-15T18:31:44.855Z,18.70
2023-05-15T18:34:52.147Z,18.60
2023-05-15T18:37:58.974Z,18.48
2023-05-15T18:41:05.247Z,18.38
2023-05-15T18:44:11.213Z,18.30
2023-05-15T18:47:17.253Z,18.22
2023-05-15T18:50:23.626Z,18.15
2023-05-15T18:53:30.820Z,18.07
2023-05-15T18:56:38.103Z,17.99
2023-05-15T18:59:45.338Z,17.90
2023-05-15T19:02:53.369Z,17.80
2023-05-15T19:05:59.216Z,17.69
2023-05-15T19:09:04.954Z,17.59
2023-05-15T19:12:14.342Z,17.49
2023-05-15T19:15:23.964Z,17.39
2023-05-15T19:18:30.550Z,17.33
2023-05-15T19:21:36.294Z,17.29
2023-05-15T19:24:42.773Z,17.24
2023-05-15T19:27:48.465Z,17.19
2023-05-15T19:30:56.919Z,17.11
2023-05-15T19:34:03.969Z,17.06
2023-05-15T19:37:09.507Z,16.99
2023-05-15T19:40:16.085Z,16.94
2023-05-15T19:43:22.128Z,16.89
2023-05-15T19:46:30.304Z,16.83
2023-05-15T19:49:39.040Z,16.75
2023-05-15T19:52:45.413Z,16.71
2023-05-15T19:55:52.734Z,16.66
2023-05-15T19:58:59.638Z,16.63
2023-05-15T20:02:06.150Z,16.61
2023-05-15T20:05:12.674Z,16.58
2023-05-15T20:08:22.892Z,16.58
2023-05-15T20:11:28.175Z,16.58
2023-05-15T20:14:35.713Z,16.55
2023-05-15T20:17:41.504Z,16.52
2023-05-15T20:20:47.960Z,16.47
2023-05-15T20:23:56.275Z,16.38
2023-05-15T20:27:02.649Z,16.31
2023-05-15T20:30:07.481Z,16.24
2023-05-15T20:33:12.783Z,16.17
2023-05-15T20:36:17.741Z,16.12
2023-05-15T20:39:24.183Z,16.08
2023-05-15T20:42:30.454Z,16.04
2023-05-15T20:45:35.724Z,16.00
2023-05-15T20:48:56.869Z,16.00
2023-05-15T20:52:02.022Z,15.98
2023-05-15T20:55:07.433Z,15.94
2023-05-15T20:58:13.343Z,15.92
2023-05-15T21:01:20.434Z,15.90
2023-05-15T21:04:26.366Z,15.88
2023-05-15T21:07:32.212Z,15.86
2023-05-15T21:10:37.574Z,15.83
2023-05-15T21:13:43.576Z,15.81
2023-05-15T21:16:49.842Z,15.78
2023-05-15T21:19:58.810Z,15.75
2023-05-15T21:23:04.353Z,15.73
2023-05-15T21:26:10.079Z,15.69
2023-05-15T21:29:16.839Z,15.64
2023-05-15T21:32:25.296Z,15.59
2023-05-15T21:35:33.409Z,15.53
2023-05-15T21:38:39.306Z,15.50
2023-05-15T21:41:45.962Z,15.47
2023-05-15T21:44:50.938Z,15.42
2023-05-15T21:47:57.260Z,15.38
2023-05-15T21:51:04.203Z,15.37
2023-05-15T21:54:09.595Z,15.32
2023-05-15T21:57:15.650Z,15.26
2023-05-15T22:00:22.813Z,15.23
2023-05-15T22:03:27.985Z,15.17
2023-05-15T22:06:34.144Z,15.11
2023-05-15T22:09:40.704Z,15.06
2023-05-15T22:12:45.714Z,15.02
2023-05-15T22:15:52.389Z,14.98
2023-05-15T22:18:59.846Z,14.95
2023-05-15T22:22:05.849Z,14.92
2023-05-15T22:25:11.292Z,14.92
2023-05-15T22:28:17.110Z,14.93
2023-05-15T22:31:25.159Z,14.97
2023-05-15T22:34:32.115Z,15.05
2023-05-15T22:37:37.363Z,15.13
2023-05-15T22:40:42.383Z,15.17
2023-05-15T22:43:49.382Z,15.20
2023-05-15T22:46:55.752Z,15.19
2023-05-15T22:50:02.279Z,15.20
2023-05-15T22:53:08.242Z,15.20
2023-05-15T22:56:14.666Z,15.19
2023-05-15T22:59:21.392Z,15.19
2023-05-15T23:02:26.573Z,15.19
2023-05-15T23:05:32.049Z,15.19
2023-05-15T23:08:37.577Z,15.18
2023-05-15T23:11:44.238Z,15.16
2023-05-15T23:14:50.569Z,15.14
2023-05-15T23:17:57.642Z,15.11
2023-05-15T23:21:04.941Z,15.09
2023-05-15T23:24:09.969Z,15.07
2023-05-15T23:27:15.962Z,15.07
2023-05-15T23:30:23.732Z,15.03
2023-05-15T23:33:29.973Z,14.99
2023-05-15T23:36:35.658Z,14.96
2023-05-15T23:39:43.022Z,14.93
2023-05-15T23:42:49.159Z,14.90
2023-05-15T23:45:56.360Z,14.86
2023-05-15T23:49:02.293Z,14.83
2023-05-15T23:52:08.227Z,14.78
2023-05-15T23:55:14.602Z,14.73
2023-05-15T23:58:20.499Z,14.67
